sensor_id;sensor_type;location;lat;lon;timestamp;P1;P2;P0
12246;PMS7003;6186;52.022;4.692;2022-08-06T00:01:39;2.75;2.00;1.00
12246;PMS7003;6186;52.022;4.692;2022-08-06T00:04:05;2.25;2.00;1.00
12246;PMS7003;6186;52.022;4.692;2022-08-06T00:06:30;3.75;3.00;1.00
12246;PMS7003;6186;52.022;4.692;2022-08-06T00:08:55;2.00;2.00;1.00
12246;PMS7003;6186;52.022;4.692;2022-08-06T00:11:21;2.75;2.75;1.00
12246;PMS7003;6186;52.022;4.692;2022-08-06T00:13:46;2.00;2.00;0.00
12246;PMS7003;6186;52.022;4.692;2022-08-06T00:16:11;2.50;2.00;0.50
12246;PMS7003;6186;52.022;4.692;2022-08-06T00:18:37;1.50;1.50;0.00
12246;PMS7003;6186;52.022;4.692;2022-08-06T00:21:02;1.75;1.75;0.50
12246;PMS7003;6186;52.022;4.692;2022-08-06T00:23:27;2.00;2.00;0.00
12246;PMS7003;6186;52.022;4.692;2022-08-06T00:25:54;1.40;1.40;0.00
12246;PMS7003;6186;52.022;4.692;2022-08-06T00:28:23;2.00;2.00;0.00
12246;PMS7003;6186;52.022;4.692;2022-08-06T00:30:50;2.00;1.80;0.00
12246;PMS7003;6186;52.022;4.692;2022-08-06T00:33:15;1.00;1.00;0.00
12246;PMS7003;6186;52.022;4.692;2022-08-06T00:35:41;2.00;2.00;0.75
12246;PMS7003;6186;52.022;4.692;2022-08-06T00:38:07;3.00;2.00;0.00
12246;PMS7003;6186;52.022;4.692;2022-08-06T00:40:32;1.00;1.00;0.00
12246;PMS7003;6186;52.022;4.692;2022-08-06T00:42:58;1.25;1.25;0.00
12246;PMS7003;6186;52.022;4.692;2022-08-06T00:45:25;2.00;2.00;0.00
12246;PMS7003;6186;52.022;4.692;2022-08-06T00:47:53;1.50;1.50;0.00
12246;PMS7003;6186;52.022;4.692;2022-08-06T00:50:19;1.20;1.20;0.20
12246;PMS7003;6186;52.022;4.692;2022-08-06T00:52:44;2.00;1.00;0.00
12246;PMS7003;6186;52.022;4.692;2022-08-06T00:55:11;2.00;2.00;0.80
12246;PMS7003;6186;52.022;4.692;2022-08-06T00:57:36;1.50;1.50;0.00
12246;PMS7003;6186;52.022;4.692;2022-08-06T01:00:02;2.25;2.25;1.00
12246;PMS7003;6186;52.022;4.692;2022-08-06T01:02:31;2.00;2.00;0.20
12246;PMS7003;6186;52.022;4.692;2022-08-06T01:04:57;2.00;2.00;0.00
12246;PMS7003;6186;52.022;4.692;2022-08-06T01:07:22;2.00;2.00;0.00
12246;PMS7003;6186;52.022;4.692;2022-08-06T01:09:48;2.00;2.00;0.50
12246;PMS7003;6186;52.022;4.692;2022-08-06T01:12:14;2.40;2.40;1.00
12246;PMS7003;6186;52.022;4.692;2022-08-06T01:14:40;3.00;2.00;1.00
12246;PMS7003;6186;52.022;4.692;2022-08-06T01:25:53;4.00;3.00;1.00
12246;PMS7003;6186;52.022;4.692;2022-08-06T01:28:25;4.00;4.00;1.00
12246;PMS7003;6186;52.022;4.692;2022-08-06T01:31:02;2.00;2.00;1.00
12246;PMS7003;6186;52.022;4.692;2022-08-06T01:33:30;2.00;2.00;0.20
12246;PMS7003;6186;52.022;4.692;2022-08-06T01:36:02;2.00;2.00;1.00
12246;PMS7003;6186;52.022;4.692;2022-08-06T01:38:33;2.20;2.20;1.00
12246;PMS7003;6186;52.022;4.692;2022-08-06T01:41:04;2.60;2.60;1.00
12246;PMS7003;6186;52.022;4.692;2022-08-06T01:43:33;2.60;2.20;0.00
12246;PMS7003;6186;52.022;4.692;2022-08-06T01:46:01;3.00;3.00;1.20
12246;PMS7003;6186;52.022;4.692;2022-08-06T01:48:28;2.00;2.00;0.80
12246;PMS7003;6186;52.022;4.692;2022-08-06T01:51:00;3.40;2.00;0.20
12246;PMS7003;6186;52.022;4.692;2022-08-06T01:53:32;2.40;2.40;1.00
12246;PMS7003;6186;52.022;4.692;2022-08-06T01:56:02;2.00;2.00;0.40
12246;PMS7003;6186;52.022;4.692;2022-08-06T01:58:32;2.40;2.00;1.00
12246;PMS7003;6186;52.022;4.692;2022-08-06T02:01:03;2.60;2.00;0.20
12246;PMS7003;6186;52.022;4.692;2022-08-06T02:03:33;3.00;2.60;0.60
12246;PMS7003;6186;52.022;4.692;2022-08-06T02:06:02;2.00;1.80;0.00
12246;PMS7003;6186;52.022;4.692;2022-08-06T02:08:30;2.00;2.00;0.00
12246;PMS7003;6186;52.022;4.692;2022-08-06T02:10:59;2.60;2.00;0.80
12246;PMS7003;6186;52.022;4.692;2022-08-06T02:13:26;2.00;2.00;0.00
12246;PMS7003;6186;52.022;4.692;2022-08-06T02:15:55;2.00;2.00;0.20
12246;PMS7003;6186;52.022;4.692;2022-08-06T02:18:23;1.40;1.40;0.00
12246;PMS7003;6186;52.022;4.692;2022-08-06T02:20:52;2.00;2.00;1.00
12246;PMS7003;6186;52.022;4.692;2022-08-06T02:23:21;3.00;3.00;1.00
12246;PMS7003;6186;52.022;4.692;2022-08-06T02:25:49;2.00;2.00;0.00
12246;PMS7003;6186;52.022;4.692;2022-08-06T02:28:18;2.40;2.00;0.00
12246;PMS7003;6186;52.022;4.692;2022-08-06T02:30:46;2.40;2.00;0.20
12246;PMS7003;6186;52.022;4.692;2022-08-06T02:33:12;2.00;2.00;0.60
12246;PMS7003;6186;52.022;4.692;2022-08-06T02:35:46;2.00;2.00;1.00
12246;PMS7003;6186;52.022;4.692;2022-08-06T02:38:22;2.00;2.00;1.00
12246;PMS7003;6186;52.022;4.692;2022-08-06T02:40:57;2.40;2.40;1.00
12246;PMS7003;6186;52.022;4.692;2022-08-06T02:43:33;2.80;2.80;0.40
12246;PMS7003;6186;52.022;4.692;2022-08-06T02:46:11;2.00;2.00;0.60
12246;PMS7003;6186;52.022;4.692;2022-08-06T02:48:46;2.00;2.00;0.40
12246;PMS7003;6186;52.022;4.692;2022-08-06T02:51:17;2.20;2.20;1.00
12246;PMS7003;6186;52.022;4.692;2022-08-06T02:54:00;2.00;2.00;0.60
12246;PMS7003;6186;52.022;4.692;2022-08-06T02:56:33;2.00;2.00;1.00
12246;PMS7003;6186;52.022;4.692;2022-08-06T02:59:01;2.00;2.00;0.80
12246;PMS7003;6186;52.022;4.692;2022-08-06T03:01:30;2.00;2.00;1.00
12246;PMS7003;6186;52.022;4.692;2022-08-06T03:03:58;3.00;3.00;1.00
12246;PMS7003;6186;52.022;4.692;2022-08-06T03:06:26;3.00;2.00;0.00
12246;PMS7003;6186;52.022;4.692;2022-08-06T03:08:58;2.00;2.00;0.40
12246;PMS7003;6186;52.022;4.692;2022-08-06T03:11:25;2.00;2.00;1.00
12246;PMS7003;6186;52.022;4.692;2022-08-06T03:13:53;2.60;2.60;1.00
12246;PMS7003;6186;52.022;4.692;2022-08-06T03:16:21;3.60;3.00;1.00
12246;PMS7003;6186;52.022;4.692;2022-08-06T03:18:48;2.20;2.20;0.60
12246;PMS7003;6186;52.022;4.692;2022-08-06T03:21:14;2.00;2.00;0.40
12246;PMS7003;6186;52.022;4.692;2022-08-06T03:23:41;2.00;2.00;1.00
12246;PMS7003;6186;52.022;4.692;2022-08-06T03:26:08;2.00;2.00;0.40
12246;PMS7003;6186;52.022;4.692;2022-08-06T03:28:36;1.40;1.40;0.00
12246;PMS7003;6186;52.022;4.692;2022-08-06T03:31:03;3.00;3.00;1.00
12246;PMS7003;6186;52.022;4.692;2022-08-06T03:33:29;2.00;2.00;1.00
12246;PMS7003;6186;52.022;4.692;2022-08-06T03:35:55;2.75;2.75;1.00
12246;PMS7003;6186;52.022;4.692;2022-08-06T03:38:23;2.80;2.00;0.00
12246;PMS7003;6186;52.022;4.692;2022-08-06T03:40:51;2.00;2.00;0.00
12246;PMS7003;6186;52.022;4.692;2022-08-06T03:43:19;2.00;2.00;0.00
12246;PMS7003;6186;52.022;4.692;2022-08-06T03:45:46;1.00;1.00;0.00
12246;PMS7003;6186;52.022;4.692;2022-08-06T03:48:19;2.00;2.00;1.00
12246;PMS7003;6186;52.022;4.692;2022-08-06T03:50:48;2.00;1.00;0.00
12246;PMS7003;6186;52.022;4.692;2022-08-06T03:53:18;2.00;2.00;1.00
12246;PMS7003;6186;52.022;4.692;2022-08-06T03:55:47;2.40;2.00;0.00
12246;PMS7003;6186;52.022;4.692;2022-08-06T03:58:15;1.80;1.80;0.00
12246;PMS7003;6186;52.022;4.692;2022-08-06T04:00:50;2.00;2.00;0.00
12246;PMS7003;6186;52.022;4.692;2022-08-06T04:03:20;2.00;2.00;0.20
12246;PMS7003;6186;52.022;4.692;2022-08-06T04:05:46;3.00;2.75;0.00
12246;PMS7003;6186;52.022;4.692;2022-08-06T04:08:12;2.00;2.00;0.40
12246;PMS7003;6186;52.022;4.692;2022-08-06T04:10:42;2.00;2.00;0.00
12246;PMS7003;6186;52.022;4.692;2022-08-06T04:13:12;2.00;2.00;0.00
12246;PMS7003;6186;52.022;4.692;2022-08-06T04:15:40;2.60;2.00;1.00
12246;PMS7003;6186;52.022;4.692;2022-08-06T04:18:07;2.00;2.00;0.00
12246;PMS7003;6186;52.022;4.692;2022-08-06T04:20:34;2.00;2.00;0.00
12246;PMS7003;6186;52.022;4.692;2022-08-06T04:23:00;1.40;1.40;0.00
12246;PMS7003;6186;52.022;4.692;2022-08-06T04:25:27;1.80;1.80;0.00
12246;PMS7003;6186;52.022;4.692;2022-08-06T04:27:56;1.00;1.00;0.00
12246;PMS7003;6186;52.022;4.692;2022-08-06T04:30:24;2.00;2.00;0.00
12246;PMS7003;6186;52.022;4.692;2022-08-06T04:32:52;2.00;2.00;0.00
12246;PMS7003;6186;52.022;4.692;2022-08-06T04:35:18;1.00;1.00;0.00
12246;PMS7003;6186;52.022;4.692;2022-08-06T04:37:46;1.20;1.20;0.00
12246;PMS7003;6186;52.022;4.692;2022-08-06T04:40:13;1.40;1.40;0.00
12246;PMS7003;6186;52.022;4.692;2022-08-06T04:42:38;2.20;2.20;0.20
12246;PMS7003;6186;52.022;4.692;2022-08-06T04:45:05;2.00;2.00;0.00
12246;PMS7003;6186;52.022;4.692;2022-08-06T04:47:32;2.20;2.20;0.40
12246;PMS7003;6186;52.022;4.692;2022-08-06T04:49:57;2.00;2.00;0.00
12246;PMS7003;6186;52.022;4.692;2022-08-06T04:52:24;2.00;2.00;0.00
12246;PMS7003;6186;52.022;4.692;2022-08-06T04:54:51;2.00;2.00;0.20
12246;PMS7003;6186;52.022;4.692;2022-08-06T04:57:19;2.00;2.00;0.00
12246;PMS7003;6186;52.022;4.692;2022-08-06T04:59:44;2.50;2.50;0.00
12246;PMS7003;6186;52.022;4.692;2022-08-06T05:02:10;2.00;2.00;0.00
12246;PMS7003;6186;52.022;4.692;2022-08-06T05:04:36;1.00;1.00;0.00
12246;PMS7003;6186;52.022;4.692;2022-08-06T05:07:16;2.00;2.00;1.00
12246;PMS7003;6186;52.022;4.692;2022-08-06T05:09:46;1.00;1.00;0.00
12246;PMS7003;6186;52.022;4.692;2022-08-06T05:12:15;1.20;1.20;0.00
12246;PMS7003;6186;52.022;4.692;2022-08-06T05:17:49;2.00;1.40;0.00
12246;PMS7003;6186;52.022;4.692;2022-08-06T05:20:21;2.20;2.00;0.00
12246;PMS7003;6186;52.022;4.692;2022-08-06T05:22:47;2.00;1.75;0.00
12246;PMS7003;6186;52.022;4.692;2022-08-06T05:25:17;1.60;1.40;0.00
12246;PMS7003;6186;52.022;4.692;2022-08-06T05:27:43;2.00;2.00;0.00
12246;PMS7003;6186;52.022;4.692;2022-08-06T05:30:09;2.00;2.00;0.00
12246;PMS7003;6186;52.022;4.692;2022-08-06T05:32:44;2.00;2.00;0.00
12246;PMS7003;6186;52.022;4.692;2022-08-06T05:35:11;2.00;2.00;0.00
12246;PMS7003;6186;52.022;4.692;2022-08-06T05:37:37;2.00;1.80;0.00
12246;PMS7003;6186;52.022;4.692;2022-08-06T05:40:03;2.00;1.00;0.00
12246;PMS7003;6186;52.022;4.692;2022-08-06T05:42:29;1.20;1.20;0.00
12246;PMS7003;6186;52.022;4.692;2022-08-06T05:44:54;1.00;1.00;0.00
12246;PMS7003;6186;52.022;4.692;2022-08-06T05:47:20;1.00;1.00;0.00
12246;PMS7003;6186;52.022;4.692;2022-08-06T05:49:52;1.00;1.00;0.00
12246;PMS7003;6186;52.022;4.692;2022-08-06T05:52:24;1.20;1.00;0.00
12246;PMS7003;6186;52.022;4.692;2022-08-06T05:57:23;1.00;1.00;0.00
12246;PMS7003;6186;52.022;4.692;2022-08-06T05:59:54;1.00;1.00;0.00
12246;PMS7003;6186;52.022;4.692;2022-08-06T06:02:24;2.20;2.00;0.00
12246;PMS7003;6186;52.022;4.692;2022-08-06T06:04:52;2.00;2.00;0.00
12246;PMS7003;6186;52.022;4.692;2022-08-06T06:07:18;2.00;1.80;0.00
12246;PMS7003;6186;52.022;4.692;2022-08-06T06:09:45;3.00;2.00;0.00
12246;PMS7003;6186;52.022;4.692;2022-08-06T06:12:11;2.00;1.80;0.00
12246;PMS7003;6186;52.022;4.692;2022-08-06T06:14:38;1.00;1.00;0.00
12246;PMS7003;6186;52.022;4.692;2022-08-06T06:19:55;1.00;1.00;0.00
12246;PMS7003;6186;52.022;4.692;2022-08-06T06:22:38;1.00;1.00;0.00
12246;PMS7003;6186;52.022;4.692;2022-08-06T06:25:15;1.20;1.00;0.00
12246;PMS7003;6186;52.022;4.692;2022-08-06T06:27:59;1.00;1.00;0.00
12246;PMS7003;6186;52.022;4.692;2022-08-06T06:33:22;1.00;1.00;0.00
12246;PMS7003;6186;52.022;4.692;2022-08-06T06:35:54;1.00;1.00;0.00
12246;PMS7003;6186;52.022;4.692;2022-08-06T06:43:37;1.00;1.00;0.00
12246;PMS7003;6186;52.022;4.692;2022-08-06T06:48:50;1.00;1.00;0.00
12246;PMS7003;6186;52.022;4.692;2022-08-06T06:51:22;1.80;1.00;0.00
12246;PMS7003;6186;52.022;4.692;2022-08-06T06:53:54;1.00;1.00;0.00
12246;PMS7003;6186;52.022;4.692;2022-08-06T06:56:22;1.00;1.00;0.00
12246;PMS7003;6186;52.022;4.692;2022-08-06T06:58:58;1.00;1.00;0.00
12246;PMS7003;6186;52.022;4.692;2022-08-06T07:01:28;1.00;1.00;0.00
12246;PMS7003;6186;52.022;4.692;2022-08-06T07:03:57;1.00;1.00;0.00
12246;PMS7003;6186;52.022;4.692;2022-08-06T07:06:25;1.00;1.00;0.00
12246;PMS7003;6186;52.022;4.692;2022-08-06T07:08:53;1.50;1.00;0.00
12246;PMS7003;6186;52.022;4.692;2022-08-06T07:11:21;1.40;1.00;0.00
12246;PMS7003;6186;52.022;4.692;2022-08-06T07:13:49;1.00;1.00;0.00
12246;PMS7003;6186;52.022;4.692;2022-08-06T07:16:21;1.60;1.00;0.00
12246;PMS7003;6186;52.022;4.692;2022-08-06T07:18:49;1.00;1.00;0.00
12246;PMS7003;6186;52.022;4.692;2022-08-06T07:21:17;1.00;1.00;0.00
12246;PMS7003;6186;52.022;4.692;2022-08-06T07:23:45;1.00;1.00;0.00
12246;PMS7003;6186;52.022;4.692;2022-08-06T07:26:13;2.00;1.20;0.00
12246;PMS7003;6186;52.022;4.692;2022-08-06T07:28:41;1.00;1.00;0.00
12246;PMS7003;6186;52.022;4.692;2022-08-06T07:31:07;1.00;1.00;0.00
12246;PMS7003;6186;52.022;4.692;2022-08-06T07:33:34;1.00;1.00;0.00
12246;PMS7003;6186;52.022;4.692;2022-08-06T07:36:01;1.20;1.20;0.00
12246;PMS7003;6186;52.022;4.692;2022-08-06T07:38:27;1.00;1.00;0.00
12246;PMS7003;6186;52.022;4.692;2022-08-06T07:40:57;1.00;1.00;0.00
12246;PMS7003;6186;52.022;4.692;2022-08-06T07:43:28;1.00;1.00;0.00
12246;PMS7003;6186;52.022;4.692;2022-08-06T07:45:56;1.00;1.00;0.00
12246;PMS7003;6186;52.022;4.692;2022-08-06T07:48:24;1.60;1.00;0.00
12246;PMS7003;6186;52.022;4.692;2022-08-06T07:50:55;1.00;1.00;0.00
12246;PMS7003;6186;52.022;4.692;2022-08-06T07:53:23;1.00;1.00;0.00
12246;PMS7003;6186;52.022;4.692;2022-08-06T07:55:49;1.00;1.00;0.00
12246;PMS7003;6186;52.022;4.692;2022-08-06T07:58:15;1.00;1.00;0.00
12246;PMS7003;6186;52.022;4.692;2022-08-06T08:00:41;1.00;1.00;0.00
12246;PMS7003;6186;52.022;4.692;2022-08-06T08:03:09;1.00;1.00;0.00
12246;PMS7003;6186;52.022;4.692;2022-08-06T08:05:53;1.00;1.00;0.00
12246;PMS7003;6186;52.022;4.692;2022-08-06T08:08:38;1.00;1.00;0.00
12246;PMS7003;6186;52.022;4.692;2022-08-06T08:11:04;2.00;2.00;0.50
12246;PMS7003;6186;52.022;4.692;2022-08-06T08:13:32;1.40;1.40;0.00
12246;PMS7003;6186;52.022;4.692;2022-08-06T08:15:59;1.00;1.00;0.00
12246;PMS7003;6186;52.022;4.692;2022-08-06T08:18:31;1.00;1.00;0.00
12246;PMS7003;6186;52.022;4.692;2022-08-06T08:20:57;0.40;0.40;0.00
12246;PMS7003;6186;52.022;4.692;2022-08-06T08:23:24;0.60;0.60;0.00
12246;PMS7003;6186;52.022;4.692;2022-08-06T08:25:51;0.40;0.40;0.00
12246;PMS7003;6186;52.022;4.692;2022-08-06T08:28:17;0.25;0.25;0.00
12246;PMS7003;6186;52.022;4.692;2022-08-06T08:30:43;0.25;0.25;0.00
12246;PMS7003;6186;52.022;4.692;2022-08-06T08:33:09;1.00;1.00;0.00
12246;PMS7003;6186;52.022;4.692;2022-08-06T08:35:35;1.00;1.00;0.00
12246;PMS7003;6186;52.022;4.692;2022-08-06T08:38:00;1.00;1.00;0.00
12246;PMS7003;6186;52.022;4.692;2022-08-06T08:40:26;0.25;0.25;0.00
12246;PMS7003;6186;52.022;4.692;2022-08-06T08:42:53;1.00;1.00;0.00
12246;PMS7003;6186;52.022;4.692;2022-08-06T08:45:26;1.00;1.00;0.00
12246;PMS7003;6186;52.022;4.692;2022-08-06T08:47:54;1.00;1.00;0.00
12246;PMS7003;6186;52.022;4.692;2022-08-06T08:50:23;1.00;1.00;0.00
12246;PMS7003;6186;52.022;4.692;2022-08-06T08:52:54;1.00;1.00;0.00
12246;PMS7003;6186;52.022;4.692;2022-08-06T08:55:25;1.00;1.00;0.00
12246;PMS7003;6186;52.022;4.692;2022-08-06T08:57:51;2.00;2.00;0.00
12246;PMS7003;6186;52.022;4.692;2022-08-06T09:00:18;2.00;1.40;0.00
12246;PMS7003;6186;52.022;4.692;2022-08-06T09:02:44;1.00;1.00;0.00
12246;PMS7003;6186;52.022;4.692;2022-08-06T09:05:10;1.00;1.00;0.00
12246;PMS7003;6186;52.022;4.692;2022-08-06T09:07:36;1.00;1.00;0.00
12246;PMS7003;6186;52.022;4.692;2022-08-06T09:10:07;1.00;1.00;0.00
12246;PMS7003;6186;52.022;4.692;2022-08-06T09:12:34;1.00;1.00;0.00
12246;PMS7003;6186;52.022;4.692;2022-08-06T09:15:00;2.00;2.00;0.00
12246;PMS7003;6186;52.022;4.692;2022-08-06T09:17:25;1.00;1.00;0.00
12246;PMS7003;6186;52.022;4.692;2022-08-06T09:19:51;1.00;1.00;0.00
12246;PMS7003;6186;52.022;4.692;2022-08-06T09:22:17;1.40;1.00;0.00
12246;PMS7003;6186;52.022;4.692;2022-08-06T09:24:42;1.00;1.00;0.00
12246;PMS7003;6186;52.022;4.692;2022-08-06T09:27:09;1.50;1.25;0.00
12246;PMS7003;6186;52.022;4.692;2022-08-06T09:29:55;1.00;1.00;0.00
12246;PMS7003;6186;52.022;4.692;2022-08-06T09:32:35;2.00;1.00;0.00
12246;PMS7003;6186;52.022;4.692;2022-08-06T09:37:50;1.00;1.00;0.00
12246;PMS7003;6186;52.022;4.692;2022-08-06T09:40:28;1.00;1.00;0.00
12246;PMS7003;6186;52.022;4.692;2022-08-06T09:42:54;1.00;1.00;0.00
12246;PMS7003;6186;52.022;4.692;2022-08-06T09:45:21;1.75;1.75;0.00
12246;PMS7003;6186;52.022;4.692;2022-08-06T09:47:48;1.00;1.00;0.00
12246;PMS7003;6186;52.022;4.692;2022-08-06T09:50:14;1.00;1.00;0.00
12246;PMS7003;6186;52.022;4.692;2022-08-06T09:52:40;1.00;1.00;0.00
12246;PMS7003;6186;52.022;4.692;2022-08-06T09:55:05;1.00;1.00;0.00
12246;PMS7003;6186;52.022;4.692;2022-08-06T09:57:44;1.00;1.00;0.00
12246;PMS7003;6186;52.022;4.692;2022-08-06T10:00:10;2.20;2.00;0.00
12246;PMS7003;6186;52.022;4.692;2022-08-06T10:02:47;1.00;1.00;0.00
12246;PMS7003;6186;52.022;4.692;2022-08-06T10:05:13;1.00;1.00;0.00
12246;PMS7003;6186;52.022;4.692;2022-08-06T10:07:38;1.00;1.00;0.00
12246;PMS7003;6186;52.022;4.692;2022-08-06T10:10:05;1.00;1.00;0.00
12246;PMS7003;6186;52.022;4.692;2022-08-06T10:12:31;1.00;1.00;0.00
12246;PMS7003;6186;52.022;4.692;2022-08-06T10:14:57;1.00;1.00;0.00
12246;PMS7003;6186;52.022;4.692;2022-08-06T10:17:23;0.40;0.40;0.00
12246;PMS7003;6186;52.022;4.692;2022-08-06T10:22:53;1.20;0.40;0.00
12246;PMS7003;6186;52.022;4.692;2022-08-06T10:25:20;0.40;0.40;0.00
12246;PMS7003;6186;52.022;4.692;2022-08-06T10:27:47;0.40;0.40;0.00
12246;PMS7003;6186;52.022;4.692;2022-08-06T10:30:15;0.40;0.40;0.00
12246;PMS7003;6186;52.022;4.692;2022-08-06T10:32:42;0.25;0.25;0.00
12246;PMS7003;6186;52.022;4.692;2022-08-06T10:35:12;0.40;0.40;0.00
12246;PMS7003;6186;52.022;4.692;2022-08-06T10:37:41;0.40;0.40;0.00
12246;PMS7003;6186;52.022;4.692;2022-08-06T10:40:09;0.40;0.40;0.00
12246;PMS7003;6186;52.022;4.692;2022-08-06T10:42:38;0.40;0.40;0.00
12246;PMS7003;6186;52.022;4.692;2022-08-06T10:45:04;0.40;0.40;0.00
12246;PMS7003;6186;52.022;4.692;2022-08-06T10:47:30;0.40;0.40;0.00
12246;PMS7003;6186;52.022;4.692;2022-08-06T10:49:58;0.40;0.40;0.00
12246;PMS7003;6186;52.022;4.692;2022-08-06T10:52:25;0.40;0.40;0.00
12246;PMS7003;6186;52.022;4.692;2022-08-06T10:54:52;0.40;0.40;0.00
12246;PMS7003;6186;52.022;4.692;2022-08-06T10:57:21;0.40;0.40;0.00
12246;PMS7003;6186;52.022;4.692;2022-08-06T10:59:47;0.40;0.40;0.00
12246;PMS7003;6186;52.022;4.692;2022-08-06T11:05:12;1.40;1.40;0.00
12246;PMS7003;6186;52.022;4.692;2022-08-06T11:07:45;1.40;1.40;0.00
12246;PMS7003;6186;52.022;4.692;2022-08-06T11:13:16;1.00;1.00;0.00
12246;PMS7003;6186;52.022;4.692;2022-08-06T11:15:58;0.40;0.40;0.00
12246;PMS7003;6186;52.022;4.692;2022-08-06T11:18:23;1.20;1.20;0.00
12246;PMS7003;6186;52.022;4.692;2022-08-06T11:20:49;0.25;0.25;0.00
12246;PMS7003;6186;52.022;4.692;2022-08-06T11:25:43;1.00;1.00;0.00
12246;PMS7003;6186;52.022;4.692;2022-08-06T11:28:14;1.40;1.40;0.00
12246;PMS7003;6186;52.022;4.692;2022-08-06T11:33:13;2.20;1.40;0.20
12246;PMS7003;6186;52.022;4.692;2022-08-06T11:36:05;1.00;1.00;0.00
12246;PMS7003;6186;52.022;4.692;2022-08-06T11:41:25;0.40;0.40;0.00
12246;PMS7003;6186;52.022;4.692;2022-08-06T11:51:36;1.25;1.25;0.00
12246;PMS7003;6186;52.022;4.692;2022-08-06T11:54:16;0.60;0.60;0.00
12246;PMS7003;6186;52.022;4.692;2022-08-06T11:59:29;1.60;1.60;0.20
12246;PMS7003;6186;52.022;4.692;2022-08-06T12:01:57;1.40;1.40;0.40
12246;PMS7003;6186;52.022;4.692;2022-08-06T12:07:16;2.40;2.40;0.40
12246;PMS7003;6186;52.022;4.692;2022-08-06T12:09:44;1.40;1.40;0.20
12246;PMS7003;6186;52.022;4.692;2022-08-06T12:14:49;2.00;2.00;0.40
12246;PMS7003;6186;52.022;4.692;2022-08-06T12:17:15;3.20;3.20;1.00
12246;PMS7003;6186;52.022;4.692;2022-08-06T12:19:46;2.20;2.20;0.40
12246;PMS7003;6186;52.022;4.692;2022-08-06T12:22:14;3.20;2.20;0.40
12246;PMS7003;6186;52.022;4.692;2022-08-06T12:24:42;2.00;1.60;0.40
12246;PMS7003;6186;52.022;4.692;2022-08-06T12:27:09;2.00;1.40;0.20
12246;PMS7003;6186;52.022;4.692;2022-08-06T12:29:39;1.40;1.40;0.00
12246;PMS7003;6186;52.022;4.692;2022-08-06T12:34:50;2.40;2.20;0.40
12246;PMS7003;6186;52.022;4.692;2022-08-06T12:37:17;3.00;2.20;0.40
12246;PMS7003;6186;52.022;4.692;2022-08-06T12:39:44;2.00;2.00;0.40
12246;PMS7003;6186;52.022;4.692;2022-08-06T12:42:29;1.40;1.40;0.40
12246;PMS7003;6186;52.022;4.692;2022-08-06T12:44:55;2.00;2.00;0.40
12246;PMS7003;6186;52.022;4.692;2022-08-06T12:47:22;1.40;1.40;0.40
12246;PMS7003;6186;52.022;4.692;2022-08-06T12:49:48;2.20;2.20;0.40
12246;PMS7003;6186;52.022;4.692;2022-08-06T12:52:14;3.40;2.60;0.40
12246;PMS7003;6186;52.022;4.692;2022-08-06T12:54:47;2.60;2.60;0.60
12246;PMS7003;6186;52.022;4.692;2022-08-06T12:57:20;2.60;2.20;0.40
12246;PMS7003;6186;52.022;4.692;2022-08-06T12:59:52;2.80;2.80;0.40
12246;PMS7003;6186;52.022;4.692;2022-08-06T13:02:20;2.60;2.60;0.40
12246;PMS7003;6186;52.022;4.692;2022-08-06T13:04:49;2.80;2.20;0.40
12246;PMS7003;6186;52.022;4.692;2022-08-06T13:07:17;1.80;1.80;0.40
12246;PMS7003;6186;52.022;4.692;2022-08-06T13:09:44;1.40;1.40;0.00
12246;PMS7003;6186;52.022;4.692;2022-08-06T13:12:12;1.40;1.40;0.00
12246;PMS7003;6186;52.022;4.692;2022-08-06T13:14:49;2.00;1.40;0.00
12246;PMS7003;6186;52.022;4.692;2022-08-06T13:17:14;1.40;1.40;0.00
12246;PMS7003;6186;52.022;4.692;2022-08-06T13:19:50;1.25;1.25;0.00
12246;PMS7003;6186;52.022;4.692;2022-08-06T13:22:16;1.40;1.40;0.20
12246;PMS7003;6186;52.022;4.692;2022-08-06T13:24:42;1.25;1.25;0.25
12246;PMS7003;6186;52.022;4.692;2022-08-06T13:27:07;1.25;1.25;0.25
12246;PMS7003;6186;52.022;4.692;2022-08-06T13:29:32;2.25;1.50;0.00
12246;PMS7003;6186;52.022;4.692;2022-08-06T13:34:45;2.40;2.40;0.40
12246;PMS7003;6186;52.022;4.692;2022-08-06T13:37:12;1.40;1.40;0.40
12246;PMS7003;6186;52.022;4.692;2022-08-06T13:39:47;1.50;1.50;0.25
12246;PMS7003;6186;52.022;4.692;2022-08-06T13:42:14;1.80;1.80;0.40
12246;PMS7003;6186;52.022;4.692;2022-08-06T13:44:43;1.75;1.75;0.25
12246;PMS7003;6186;52.022;4.692;2022-08-06T13:47:11;1.60;1.60;0.40
12246;PMS7003;6186;52.022;4.692;2022-08-06T13:49:41;3.00;2.40;0.40
12246;PMS7003;6186;52.022;4.692;2022-08-06T13:52:07;2.00;2.00;0.00
12246;PMS7003;6186;52.022;4.692;2022-08-06T13:54:33;2.00;2.00;0.25
12246;PMS7003;6186;52.022;4.692;2022-08-06T13:56:59;1.40;1.40;0.40
12246;PMS7003;6186;52.022;4.692;2022-08-06T13:59:25;3.00;2.40;0.40
12246;PMS7003;6186;52.022;4.692;2022-08-06T14:01:53;2.40;2.40;0.40
12246;PMS7003;6186;52.022;4.692;2022-08-06T14:04:20;2.80;2.80;1.20
12246;PMS7003;6186;52.022;4.692;2022-08-06T14:06:50;2.40;2.40;0.40
12246;PMS7003;6186;52.022;4.692;2022-08-06T14:09:17;2.40;1.60;0.20
12246;PMS7003;6186;52.022;4.692;2022-08-06T14:11:44;2.40;2.40;0.40
12246;PMS7003;6186;52.022;4.692;2022-08-06T14:14:09;2.00;2.00;0.25
12246;PMS7003;6186;52.022;4.692;2022-08-06T14:16:34;2.50;2.50;0.25
12246;PMS7003;6186;52.022;4.692;2022-08-06T14:19:00;3.00;2.25;0.25
12246;PMS7003;6186;52.022;4.692;2022-08-06T14:21:25;3.00;2.25;0.25
12246;PMS7003;6186;52.022;4.692;2022-08-06T14:23:50;3.00;2.25;1.00
12246;PMS7003;6186;52.022;4.692;2022-08-06T14:26:16;1.50;1.50;0.25
12246;PMS7003;6186;52.022;4.692;2022-08-06T14:28:41;1.25;1.25;0.00
12246;PMS7003;6186;52.022;4.692;2022-08-06T14:31:06;2.25;2.25;0.25
12246;PMS7003;6186;52.022;4.692;2022-08-06T14:33:32;1.25;1.25;0.25
12246;PMS7003;6186;52.022;4.692;2022-08-06T14:35:57;1.50;1.50;0.25
12246;PMS7003;6186;52.022;4.692;2022-08-06T14:38:22;3.25;3.00;1.00
12246;PMS7003;6186;52.022;4.692;2022-08-06T14:40:48;3.00;3.00;1.00
12246;PMS7003;6186;52.022;4.692;2022-08-06T14:43:32;3.00;2.00;1.00
12246;PMS7003;6186;52.022;4.692;2022-08-06T14:46:16;3.00;3.00;1.00
12246;PMS7003;6186;52.022;4.692;2022-08-06T14:48:42;3.00;2.60;1.00
12246;PMS7003;6186;52.022;4.692;2022-08-06T14:51:08;3.60;3.00;1.00
12246;PMS7003;6186;52.022;4.692;2022-08-06T14:53:33;2.25;2.25;0.00
12246;PMS7003;6186;52.022;4.692;2022-08-06T14:55:58;2.50;2.25;1.00
12246;PMS7003;6186;52.022;4.692;2022-08-06T14:58:24;3.00;3.00;1.00
12246;PMS7003;6186;52.022;4.692;2022-08-06T15:00:49;2.00;2.00;1.00
12246;PMS7003;6186;52.022;4.692;2022-08-06T15:03:16;3.00;3.00;1.00
12246;PMS7003;6186;52.022;4.692;2022-08-06T15:05:42;2.80;2.80;1.00
12246;PMS7003;6186;52.022;4.692;2022-08-06T15:08:09;3.00;2.00;1.00
12246;PMS7003;6186;52.022;4.692;2022-08-06T15:10:34;2.50;2.00;1.00
12246;PMS7003;6186;52.022;4.692;2022-08-06T15:13:00;1.25;1.25;0.25
12246;PMS7003;6186;52.022;4.692;2022-08-06T15:15:25;3.00;3.00;1.00
12246;PMS7003;6186;52.022;4.692;2022-08-06T15:17:50;3.75;3.00;1.00
12246;PMS7003;6186;52.022;4.692;2022-08-06T15:20:16;2.50;2.00;1.00
12246;PMS7003;6186;52.022;4.692;2022-08-06T15:22:41;3.00;3.00;1.00
12246;PMS7003;6186;52.022;4.692;2022-08-06T15:25:06;2.75;2.75;1.00
12246;PMS7003;6186;52.022;4.692;2022-08-06T15:27:33;2.60;2.60;1.00
12246;PMS7003;6186;52.022;4.692;2022-08-06T15:29:58;3.00;3.00;1.00
12246;PMS7003;6186;52.022;4.692;2022-08-06T15:32:24;2.40;2.40;1.00
12246;PMS7003;6186;52.022;4.692;2022-08-06T15:34:50;2.00;2.00;1.00
12246;PMS7003;6186;52.022;4.692;2022-08-06T15:37:17;2.60;2.60;1.00
12246;PMS7003;6186;52.022;4.692;2022-08-06T15:39:44;2.80;2.80;0.60
12246;PMS7003;6186;52.022;4.692;2022-08-06T15:42:10;3.00;3.00;1.00
12246;PMS7003;6186;52.022;4.692;2022-08-06T15:44:35;3.50;3.00;1.00
12246;PMS7003;6186;52.022;4.692;2022-08-06T15:47:02;3.50;3.25;1.00
12246;PMS7003;6186;52.022;4.692;2022-08-06T15:49:29;2.00;2.00;1.00
12246;PMS7003;6186;52.022;4.692;2022-08-06T15:51:54;4.00;4.00;1.00